Time;durP1;ratioP1;P1;durP2;ratioP2;P2;SDS_P1;SDS_P2;PMS_P1;PMS_P2;Temp;Humidity;BMP_temperature;BMP_pressure;BME280_temperature;BME280_humidity;BME280_pressure;Samples;Min_cycle;Max_cycle;Signal;HPM_P1;HPM_P2
2022/04/20 00:01:00;;;;;;;370.87;97.57;;;;;;;;;;5092654;28;20509;-71
2022/04/20 00:03:31;;;;;;;362.43;93.97;;;;;;;;;;5079932;28;20449;-70
2022/04/20 00:06:01;;;;;;;370.53;97.60;;;;;;;;;;5089702;28;20807;-71
2022/04/20 00:08:29;;;;;;;371.17;100.70;;;;;;;;;;5096219;28;20440;-71
2022/04/20 00:11:01;;;;;;;370.63;98.03;;;;;;;;;;5086173;28;20727;-71
2022/04/20 00:13:33;;;;;;;357.53;103.30;;;;;;;;;;5075403;28;20484;-72
2022/04/20 00:16:01;;;;;;;337.43;98.33;;;;;;;;;;5076029;28;20496;-72
2022/04/20 00:18:34;;;;;;;354.63;105.27;;;;;;;;;;5082113;28;20464;-71
2022/04/20 00:21:05;;;;;;;343.73;108.27;;;;;;;;;;5096719;28;20527;-71
2022/04/20 00:23:32;;;;;;;355.97;109.20;;;;;;;;;;5096765;28;20463;-71
2022/04/20 00:26:04;;;;;;;350.10;99.03;;;;;;;;;;5096289;28;20459;-71
2022/04/20 00:28:34;;;;;;;334.20;101.70;;;;;;;;;;5090267;28;20547;-71
2022/04/20 00:31:02;;;;;;;351.67;104.33;;;;;;;;;;5078586;28;20452;-70
2022/04/20 00:33:31;;;;;;;359.10;104.70;;;;;;;;;;5087324;28;20464;-70
2022/04/20 00:36:05;;;;;;;364.00;100.10;;;;;;;;;;5075768;28;20793;-71
2022/04/20 00:38:36;;;;;;;341.23;98.27;;;;;;;;;;5076037;28;20488;-71
2022/04/20 00:41:04;;;;;;;350.13;99.83;;;;;;;;;;5079338;28;20464;-71
2022/04/20 00:43:32;;;;;;;371.57;106.57;;;;;;;;;;5096516;28;20481;-70
2022/04/20 00:46:14;;;;;;;350.37;97.57;;;;;;;;;;5093495;28;20490;-70
2022/04/20 00:48:42;;;;;;;338.40;99.30;;;;;;;;;;5076210;28;20461;-71
2022/04/20 00:51:11;;;;;;;344.37;98.40;;;;;;;;;;5081354;28;20822;-71
2022/04/20 00:53:44;;;;;;;329.27;91.00;;;;;;;;;;5095965;28;20454;-71
2022/04/20 00:56:12;;;;;;;320.67;97.77;;;;;;;;;;5091155;28;20495;-72
2022/04/20 00:58:41;;;;;;;303.03;95.40;;;;;;;;;;5095049;28;20485;-71
2022/04/20 01:01:11;;;;;;;330.53;95.90;;;;;;;;;;5088435;28;20475;-72
2022/04/20 01:03:39;;;;;;;364.27;98.07;;;;;;;;;;5075282;28;20552;-72
2022/04/20 01:06:08;;;;;;;352.20;94.37;;;;;;;;;;5086193;28;20535;-71
2022/04/20 01:08:38;;;;;;;353.57;98.73;;;;;;;;;;5086456;28;20448;-71
2022/04/20 01:11:06;;;;;;;331.27;89.77;;;;;;;;;;5092665;28;20460;-71
2022/04/20 01:13:33;;;;;;;362.00;96.73;;;;;;;;;;5082219;28;20467;-70
2022/04/20 01:16:01;;;;;;;349.40;89.17;;;;;;;;;;5076043;28;20499;-70
2022/04/20 01:18:29;;;;;;;352.37;93.57;;;;;;;;;;5086718;28;20488;-70
2022/04/20 01:20:59;;;;;;;358.20;92.60;;;;;;;;;;5095719;28;20463;-70
2022/04/20 01:23:27;;;;;;;358.03;99.70;;;;;;;;;;5095797;28;20459;-70
2022/04/20 01:25:55;;;;;;;354.00;95.40;;;;;;;;;;5097376;28;20573;-70
2022/04/20 01:28:25;;;;;;;341.73;88.67;;;;;;;;;;5091907;28;20455;-71
2022/04/20 01:30:56;;;;;;;355.87;95.00;;;;;;;;;;5082120;28;20470;-71
2022/04/20 01:33:24;;;;;;;343.73;90.67;;;;;;;;;;5099857;28;20463;-71
2022/04/20 01:35:54;;;;;;;363.37;102.30;;;;;;;;;;5099809;28;20479;-71
2022/04/20 01:38:25;;;;;;;364.77;92.40;;;;;;;;;;5094532;28;20551;-71
2022/04/20 01:40:53;;;;;;;366.10;95.10;;;;;;;;;;5088876;28;20583;-71
2022/04/20 01:43:24;;;;;;;370.10;90.70;;;;;;;;;;5079501;28;20516;-71
2022/04/20 01:45:52;;;;;;;358.70;90.27;;;;;;;;;;5097213;28;20478;-71
2022/04/20 01:48:20;;;;;;;364.47;87.67;;;;;;;;;;5094491;28;20464;-71
2022/04/20 01:53:37;;;;;;;358.73;86.47;;;;;;;;;;5100136;28;20438;-71
2022/04/20 01:56:06;;;;;;;358.60;91.77;;;;;;;;;;5098999;28;20488;-71
2022/04/20 01:58:38;;;;;;;359.97;91.30;;;;;;;;;;5099896;28;20455;-71
2022/04/20 02:02:34;;;;;;;355.50;88.20;;;;;;;;;;5097907;28;20529;-71
2022/04/20 02:03:52;;;;;;;361.77;89.00;;;;;;;;;;5099197;28;20538;-71
2022/04/20 02:06:20;;;;;;;351.47;88.70;;;;;;;;;;5085382;28;20971;-70
2022/04/20 02:08:50;;;;;;;366.17;95.07;;;;;;;;;;5092701;28;20518;-71
2022/04/20 02:11:17;;;;;;;361.30;90.27;;;;;;;;;;5092879;28;20495;-71
2022/04/20 02:13:45;;;;;;;360.33;88.70;;;;;;;;;;5087698;28;20946;-70
2022/04/20 02:16:13;;;;;;;357.20;86.60;;;;;;;;;;5084705;28;20485;-71
2022/04/20 02:18:41;;;;;;;371.43;96.37;;;;;;;;;;5079589;28;20487;-70
2022/04/20 02:21:11;;;;;;;355.17;85.30;;;;;;;;;;5080104;28;20479;-70
2022/04/20 02:23:39;;;;;;;362.80;91.40;;;;;;;;;;5080176;28;20499;-71
2022/04/20 02:26:08;;;;;;;368.17;88.90;;;;;;;;;;5085682;28;20474;-70
2022/04/20 02:28:36;;;;;;;366.67;90.40;;;;;;;;;;5099133;28;20478;-70
2022/04/20 02:31:04;;;;;;;353.20;86.83;;;;;;;;;;5099277;28;20537;-71
2022/04/20 02:33:34;;;;;;;350.90;89.43;;;;;;;;;;5099841;28;20455;-70
2022/04/20 02:36:02;;;;;;;356.67;91.17;;;;;;;;;;5098378;28;20503;-70
2022/04/20 02:38:30;;;;;;;352.33;90.60;;;;;;;;;;5093173;28;20464;-70
2022/04/20 02:40:59;;;;;;;367.03;91.80;;;;;;;;;;5080245;28;20691;-70
2022/04/20 02:43:29;;;;;;;367.00;89.37;;;;;;;;;;5079888;28;20452;-70
2022/04/20 02:46:01;;;;;;;358.63;89.70;;;;;;;;;;5079168;28;20720;-70
2022/04/20 02:48:28;;;;;;;360.97;86.67;;;;;;;;;;5091201;28;20540;-71
2022/04/20 02:50:56;;;;;;;368.10;87.67;;;;;;;;;;5079482;28;20740;-71
2022/04/20 02:53:25;;;;;;;362.10;88.57;;;;;;;;;;5079690;28;20476;-70
2022/04/20 02:55:53;;;;;;;288.47;83.10;;;;;;;;;;5079277;28;20496;-70
2022/04/20 02:58:21;;;;;;;314.83;86.40;;;;;;;;;;5078550;28;20452;-70
2022/04/20 03:00:50;;;;;;;314.50;88.87;;;;;;;;;;5081206;28;20751;-70
2022/04/20 03:03:18;;;;;;;325.83;90.10;;;;;;;;;;5099039;28;20456;-70
2022/04/20 03:05:48;;;;;;;353.90;86.53;;;;;;;;;;5091026;28;20534;-71
2022/04/20 03:08:16;;;;;;;307.87;87.67;;;;;;;;;;5078683;28;20467;-70
2022/04/20 03:10:46;;;;;;;313.03;85.10;;;;;;;;;;5080184;28;20551;-71
2022/04/20 03:13:15;;;;;;;333.67;83.97;;;;;;;;;;5084577;28;20547;-70
2022/04/20 03:15:43;;;;;;;347.10;86.23;;;;;;;;;;5078685;28;20500;-71
2022/04/20 03:18:12;;;;;;;339.53;83.77;;;;;;;;;;5099086;28;20723;-71
2022/04/20 03:20:40;;;;;;;346.43;88.57;;;;;;;;;;5099642;28;20836;-71
2022/04/20 03:23:08;;;;;;;343.90;95.97;;;;;;;;;;5080102;28;20499;-70
2022/04/20 03:25:36;;;;;;;325.00;83.43;;;;;;;;;;5077691;28;20537;-71
2022/04/20 03:28:07;;;;;;;335.47;90.23;;;;;;;;;;5057991;28;20449;-71
2022/04/20 03:30:37;;;;;;;361.83;87.90;;;;;;;;;;5057813;28;20568;-71
2022/04/20 03:33:05;;;;;;;364.90;90.03;;;;;;;;;;5058464;28;20453;-71
2022/04/20 03:35:34;;;;;;;354.07;86.77;;;;;;;;;;5057754;28;20485;-70
2022/04/20 03:38:03;;;;;;;348.07;88.30;;;;;;;;;;5076639;28;20464;-71
2022/04/20 03:40:32;;;;;;;311.00;87.77;;;;;;;;;;5077234;28;20475;-71
2022/04/20 03:43:00;;;;;;;305.87;87.50;;;;;;;;;;5076502;28;20545;-71
2022/04/20 03:45:29;;;;;;;251.90;81.30;;;;;;;;;;5076334;28;20464;-72
2022/04/20 03:47:59;;;;;;;281.33;84.13;;;;;;;;;;5075773;28;20861;-70
2022/04/20 03:50:27;;;;;;;300.37;84.27;;;;;;;;;;5083371;28;20487;-70
2022/04/20 03:52:56;;;;;;;326.63;86.97;;;;;;;;;;5079453;28;20461;-71
2022/04/20 03:55:24;;;;;;;322.53;85.10;;;;;;;;;;5091685;28;20463;-71
2022/04/20 03:57:51;;;;;;;344.50;87.30;;;;;;;;;;5096873;28;20510;-71
2022/04/20 04:00:23;;;;;;;354.77;88.77;;;;;;;;;;5091340;28;20960;-71
2022/04/20 04:02:51;;;;;;;339.97;83.70;;;;;;;;;;5077370;28;20456;-71
2022/04/20 04:05:19;;;;;;;339.10;88.10;;;;;;;;;;5076478;28;20449;-71
2022/04/20 04:07:47;;;;;;;318.83;85.80;;;;;;;;;;5084449;28;20554;-71
2022/04/20 04:10:19;;;;;;;298.53;87.40;;;;;;;;;;5076568;28;20462;-71
2022/04/20 04:12:47;;;;;;;335.47;86.50;;;;;;;;;;5081772;28;20458;-71
2022/04/20 04:15:15;;;;;;;337.30;93.33;;;;;;;;;;5094815;28;20485;-71
2022/04/20 04:17:43;;;;;;;350.07;87.47;;;;;;;;;;5095978;28;20463;-71
2022/04/20 04:20:12;;;;;;;356.37;88.17;;;;;;;;;;5093917;28;20457;-70
2022/04/20 04:22:39;;;;;;;345.53;86.53;;;;;;;;;;5075985;28;20507;-70
2022/04/20 04:25:08;;;;;;;354.47;83.93;;;;;;;;;;5076465;28;20445;-71
2022/04/20 04:27:37;;;;;;;357.67;87.70;;;;;;;;;;5075612;28;20476;-72
2022/04/20 04:30:06;;;;;;;353.43;85.03;;;;;;;;;;5088974;28;20457;-71
2022/04/20 04:32:36;;;;;;;333.17;85.10;;;;;;;;;;5076371;28;20476;-71
2022/04/20 04:35:04;;;;;;;341.47;88.60;;;;;;;;;;5075205;28;20444;-72
2022/04/20 04:37:33;;;;;;;350.70;85.90;;;;;;;;;;5088558;28;20591;-71
2022/04/20 04:40:01;;;;;;;318.07;83.80;;;;;;;;;;5096179;28;20451;-71
2022/04/20 04:42:29;;;;;;;320.23;91.13;;;;;;;;;;5094645;28;20580;-71
2022/04/20 04:48:36;;;;;;;321.47;83.37;;;;;;;;;;5095181;28;20468;-71
2022/04/20 04:50:31;;;;;;;288.23;79.90;;;;;;;;;;5069198;28;20496;-71
2022/04/20 04:52:59;;;;;;;294.40;81.53;;;;;;;;;;5087340;28;20458;-70
2022/04/20 04:55:26;;;;;;;324.63;85.07;;;;;;;;;;5095396;28;20870;-70
2022/04/20 04:57:54;;;;;;;314.93;82.93;;;;;;;;;;5094952;28;20443;-70
2022/04/20 05:00:29;;;;;;;346.23;89.23;;;;;;;;;;5086386;28;20868;-70
2022/04/20 05:02:57;;;;;;;363.23;93.57;;;;;;;;;;5074953;28;20916;-70
2022/04/20 05:05:25;;;;;;;363.20;91.33;;;;;;;;;;5073730;28;20456;-71
2022/04/20 05:07:54;;;;;;;358.20;89.30;;;;;;;;;;5080158;28;20451;-71
2022/04/20 05:10:22;;;;;;;363.67;93.87;;;;;;;;;;5080736;28;20455;-71
2022/04/20 05:12:50;;;;;;;367.60;96.13;;;;;;;;;;5075705;28;20440;-70
2022/04/20 05:15:19;;;;;;;371.87;99.67;;;;;;;;;;5072629;28;20846;-71
2022/04/20 05:17:48;;;;;;;374.87;100.13;;;;;;;;;;5072521;28;20488;-71
2022/04/20 05:20:16;;;;;;;364.27;91.33;;;;;;;;;;5072427;28;20823;-71
2022/04/20 05:22:44;;;;;;;393.13;96.77;;;;;;;;;;5072866;28;20852;-70
2022/04/20 05:25:13;;;;;;;364.17;95.97;;;;;;;;;;5070864;28;20583;-71
2022/04/20 05:27:49;;;;;;;372.07;98.87;;;;;;;;;;5071961;28;21048;-71
2022/04/20 05:30:19;;;;;;;366.90;98.37;;;;;;;;;;5070606;28;20452;-71
2022/04/20 05:32:52;;;;;;;354.60;101.70;;;;;;;;;;5071296;28;20476;-71
2022/04/20 05:35:20;;;;;;;375.63;102.00;;;;;;;;;;5072368;28;20464;-70
2022/04/20 05:43:18;;;;;;;366.23;103.97;;;;;;;;;;5072845;28;20440;-71
2022/04/20 05:45:46;;;;;;;371.77;103.20;;;;;;;;;;5071325;28;20760;-71
2022/04/20 05:48:16;;;;;;;368.87;95.70;;;;;;;;;;5070420;28;20476;-70
2022/04/20 05:50:44;;;;;;;373.80;98.80;;;;;;;;;;5070247;28;20457;-70
2022/04/20 05:53:13;;;;;;;369.00;97.20;;;;;;;;;;5070039;28;20460;-70
2022/04/20 05:55:40;;;;;;;368.40;95.30;;;;;;;;;;5071218;28;20559;-70
2022/04/20 05:58:15;;;;;;;381.30;102.80;;;;;;;;;;5071426;28;20986;-70
2022/04/20 06:00:42;;;;;;;372.47;97.07;;;;;;;;;;5071439;28;20517;-71
2022/04/20 06:03:12;;;;;;;373.40;98.57;;;;;;;;;;5071305;28;20457;-70
2022/04/20 06:05:45;;;;;;;373.97;98.67;;;;;;;;;;5071895;28;20464;-70
2022/04/20 06:08:13;;;;;;;350.13;98.20;;;;;;;;;;5073246;28;20460;-70
2022/04/20 06:10:44;;;;;;;370.17;102.60;;;;;;;;;;5073547;28;20464;-70
2022/04/20 06:13:13;;;;;;;345.57;100.37;;;;;;;;;;5074147;28;20445;-71
2022/04/20 06:15:44;;;;;;;365.10;107.20;;;;;;;;;;5076187;28;20465;-71
2022/04/20 06:18:16;;;;;;;351.73;104.03;;;;;;;;;;5080990;28;20514;-71
2022/04/20 06:20:47;;;;;;;374.80;108.93;;;;;;;;;;5056089;28;20748;-71
2022/04/20 06:23:15;;;;;;;354.67;95.97;;;;;;;;;;5057154;28;20548;-70
2022/04/20 06:25:44;;;;;;;359.73;104.57;;;;;;;;;;5055954;28;20884;-70
2022/04/20 06:28:12;;;;;;;363.23;102.70;;;;;;;;;;5056889;28;20456;-70
2022/04/20 06:30:42;;;;;;;349.37;100.00;;;;;;;;;;5055963;28;20461;-70
2022/04/20 06:33:10;;;;;;;323.83;101.10;;;;;;;;;;5057364;28;20862;-70
2022/04/20 06:35:46;;;;;;;348.17;110.10;;;;;;;;;;5076723;28;20544;-71
2022/04/20 06:38:19;;;;;;;300.57;104.20;;;;;;;;;;5076065;28;20583;-71
2022/04/20 06:40:53;;;;;;;331.13;103.07;;;;;;;;;;5079370;28;20811;-71
2022/04/20 06:43:24;;;;;;;328.93;98.20;;;;;;;;;;5073500;28;20471;-70
2022/04/20 06:45:57;;;;;;;363.90;104.63;;;;;;;;;;5075949;28;20460;-71
2022/04/20 06:48:27;;;;;;;339.67;111.93;;;;;;;;;;5076271;28;20465;-71
2022/04/20 06:50:57;;;;;;;328.87;106.03;;;;;;;;;;5076560;28;20453;-70
2022/04/20 06:59:13;;;;;;;350.07;110.90;;;;;;;;;;5074596;28;20494;-74
2022/04/20 07:01:44;;;;;;;378.23;110.33;;;;;;;;;;5075747;28;20841;-72
2022/04/20 07:04:11;;;;;;;359.50;105.07;;;;;;;;;;5074967;28;20499;-71
2022/04/20 07:06:39;;;;;;;366.47;111.60;;;;;;;;;;5076410;28;20540;-71
2022/04/20 07:09:20;;;;;;;373.27;111.67;;;;;;;;;;5075903;28;20500;-74
2022/04/20 07:11:49;;;;;;;352.20;110.37;;;;;;;;;;5076421;28;20452;-72
2022/04/20 07:14:21;;;;;;;367.43;113.23;;;;;;;;;;5075640;28;20466;-74
2022/04/20 07:16:50;;;;;;;350.43;113.60;;;;;;;;;;5076524;28;20579;-72
2022/04/20 07:19:18;;;;;;;364.43;122.30;;;;;;;;;;5080463;28;20558;-72
2022/04/20 07:21:46;;;;;;;364.80;120.63;;;;;;;;;;5087668;28;20448;-72
2022/04/20 07:24:14;;;;;;;379.53;110.87;;;;;;;;;;5075695;28;20464;-72
2022/04/20 07:26:53;;;;;;;372.20;120.10;;;;;;;;;;5085803;28;20456;-72
2022/04/20 07:29:24;;;;;;;380.73;112.07;;;;;;;;;;5095425;28;20467;-72
2022/04/20 07:31:52;;;;;;;393.80;120.97;;;;;;;;;;5075585;28;20517;-70
2022/04/20 07:34:20;;;;;;;367.93;120.17;;;;;;;;;;5076357;28;20502;-72
2022/04/20 07:36:51;;;;;;;392.07;131.17;;;;;;;;;;5089997;28;20491;-72
2022/04/20 07:39:22;;;;;;;364.43;124.83;;;;;;;;;;5093301;28;20474;-74
2022/04/20 07:45:01;;;;;;;350.03;123.53;;;;;;;;;;5084912;28;20530;-72
2022/04/20 07:47:43;;;;;;;349.57;135.87;;;;;;;;;;5074914;28;20455;-71
2022/04/20 07:50:27;;;;;;;389.00;126.03;;;;;;;;;;5089556;28;20507;-73
2022/04/20 07:52:57;;;;;;;398.37;128.87;;;;;;;;;;5075135;28;20740;-72
2022/04/20 07:55:46;;;;;;;396.17;130.67;;;;;;;;;;5072175;28;20884;-73
2022/04/20 07:58:17;;;;;;;356.57;143.90;;;;;;;;;;5089097;28;20479;-71
2022/04/20 08:00:49;;;;;;;337.80;133.77;;;;;;;;;;5074066;28;20549;-71
2022/04/20 08:03:22;;;;;;;349.37;121.67;;;;;;;;;;5081318;28;20475;-72
2022/04/20 08:05:56;;;;;;;385.83;133.00;;;;;;;;;;5076924;28;20504;-71
2022/04/20 08:08:28;;;;;;;278.20;123.83;;;;;;;;;;5079548;28;20512;-71
2022/04/20 08:10:59;;;;;;;370.53;141.37;;;;;;;;;;5074873;28;20464;-72
2022/04/20 08:16:13;;;;;;;370.83;125.60;;;;;;;;;;5073497;28;21007;-71
2022/04/20 08:18:41;;;;;;;366.50;129.43;;;;;;;;;;5073369;28;20499;-71
2022/04/20 08:21:09;;;;;;;378.00;136.53;;;;;;;;;;5073436;28;20559;-71
2022/04/20 08:23:37;;;;;;;396.00;141.47;;;;;;;;;;5071921;28;20463;-72
2022/04/20 08:26:11;;;;;;;397.43;138.40;;;;;;;;;;5075685;28;20765;-73
2022/04/20 08:28:43;;;;;;;396.93;129.43;;;;;;;;;;5073400;28;20857;-71
2022/04/20 08:31:11;;;;;;;402.77;144.13;;;;;;;;;;5073413;28;20482;-72
2022/04/20 08:33:48;;;;;;;396.20;141.27;;;;;;;;;;5075979;28;20879;-72
2022/04/20 08:36:23;;;;;;;400.30;141.20;;;;;;;;;;5074263;28;21051;-71
2022/04/20 08:38:51;;;;;;;384.17;152.97;;;;;;;;;;5072493;28;20506;-71
2022/04/20 08:41:24;;;;;;;383.47;155.57;;;;;;;;;;5073606;28;20760;-72
2022/04/20 08:47:07;;;;;;;405.63;151.70;;;;;;;;;;5068026;28;20724;-72
2022/04/20 08:50:08;;;;;;;406.67;162.03;;;;;;;;;;5059038;28;20512;-73
2022/04/20 08:52:42;;;;;;;403.00;151.10;;;;;;;;;;5063929;28;20464;-73
2022/04/20 08:55:12;;;;;;;412.20;159.93;;;;;;;;;;5074132;28;20466;-72
2022/04/20 08:57:42;;;;;;;405.37;153.73;;;;;;;;;;5069413;28;20477;-72
2022/04/20 09:00:11;;;;;;;400.40;153.50;;;;;;;;;;5068026;28;21033;-71
2022/04/20 09:02:41;;;;;;;287.13;164.07;;;;;;;;;;5066002;28;20559;-71
2022/04/20 09:05:09;;;;;;;401.43;153.77;;;;;;;;;;5067286;28;20472;-71
2022/04/20 09:07:38;;;;;;;343.90;173.50;;;;;;;;;;5067882;28;20487;-71
2022/04/20 09:10:06;;;;;;;406.57;153.60;;;;;;;;;;5067667;28;20457;-72
2022/04/20 09:12:35;;;;;;;409.40;155.40;;;;;;;;;;5064977;28;20909;-72
2022/04/20 09:15:10;;;;;;;403.37;145.90;;;;;;;;;;5066077;28;20452;-72
2022/04/20 09:17:51;;;;;;;416.43;169.27;;;;;;;;;;5066390;28;20502;-73
2022/04/20 09:20:27;;;;;;;409.60;170.63;;;;;;;;;;5064302;28;20703;-72
2022/04/20 09:23:04;;;;;;;405.57;163.93;;;;;;;;;;5063477;28;21258;-72
2022/04/20 09:25:34;;;;;;;404.93;153.33;;;;;;;;;;5066102;28;21102;-72
2022/04/20 09:28:02;;;;;;;391.43;158.63;;;;;;;;;;5067066;28;20468;-73
2022/04/20 09:30:42;;;;;;;404.67;172.47;;;;;;;;;;5067003;28;20452;-73
2022/04/20 09:33:21;;;;;;;366.87;176.70;;;;;;;;;;5065943;28;20553;-72
2022/04/20 09:35:59;;;;;;;384.40;188.00;;;;;;;;;;5065233;28;20557;-72
2022/04/20 09:38:27;;;;;;;364.90;180.00;;;;;;;;;;5066050;28;20507;-73
2022/04/20 09:41:11;;;;;;;357.33;182.20;;;;;;;;;;5066758;28;20751;-73
2022/04/20 09:44:10;;;;;;;349.73;160.37;;;;;;;;;;5065431;28;20491;-73
2022/04/20 09:52:59;;;;;;;340.40;148.47;;;;;;;;;;5059887;28;20546;-72
2022/04/20 09:55:31;;;;;;;387.83;175.30;;;;;;;;;;5068960;28;20480;-72
2022/04/20 10:04:32;;;;;;;409.30;165.60;;;;;;;;;;5059428;28;20469;-73
2022/04/20 10:07:21;;;;;;;;;;;;;;;;;;;;;
2022/04/20 10:12:35;;;;;;;398.70;142.83;;;;;;;;;;5066711;28;20562;-73
2022/04/20 10:23:47;;;;;;;413.27;191.20;;;;;;;;;;5069513;28;21695;-73
2022/04/20 10:26:29;;;;;;;366.60;189.33;;;;;;;;;;5071200;28;20448;-73
2022/04/20 10:29:15;;;;;;;401.40;169.80;;;;;;;;;;5069109;28;20457;-73
2022/04/20 10:31:50;;;;;;;415.53;196.20;;;;;;;;;;5069046;28;20441;-74
2022/04/20 10:34:23;;;;;;;410.33;183.03;;;;;;;;;;5070535;28;20564;-72
2022/04/20 10:37:03;;;;;;;413.10;202.37;;;;;;;;;;5069376;28;20439;-73
2022/04/20 10:39:39;;;;;;;423.57;213.13;;;;;;;;;;5069886;28;20484;-72
2022/04/20 10:42:27;;;;;;;421.17;189.27;;;;;;;;;;5067400;28;20452;-72
2022/04/20 10:45:00;;;;;;;391.13;224.13;;;;;;;;;;5068634;28;20453;-73
2022/04/20 10:47:34;;;;;;;419.90;194.10;;;;;;;;;;5068568;28;20477;-73
2022/04/20 10:50:16;;;;;;;427.73;218.30;;;;;;;;;;5068849;28;20444;-72
2022/04/20 10:52:57;;;;;;;432.80;218.17;;;;;;;;;;5069154;28;20560;-73
2022/04/20 10:55:42;;;;;;;420.07;196.77;;;;;;;;;;5068390;28;20453;-73
2022/04/20 10:58:19;;;;;;;415.37;201.03;;;;;;;;;;5070588;28;20484;-72
2022/04/20 11:00:51;;;;;;;423.37;219.77;;;;;;;;;;5076145;28;20456;-73
2022/04/20 11:06:05;;;;;;;422.67;214.17;;;;;;;;;;5073776;28;20452;-74
2022/04/20 11:08:36;;;;;;;417.67;215.63;;;;;;;;;;5060630;28;20458;-74
2022/04/20 11:19:54;;;;;;;421.83;210.47;;;;;;;;;;5074127;28;20930;-73
2022/04/20 11:22:36;;;;;;;422.87;230.10;;;;;;;;;;5073657;28;20451;-73
2022/04/20 11:25:15;;;;;;;428.90;217.67;;;;;;;;;;5086522;28;20509;-74
2022/04/20 11:28:06;;;;;;;417.73;202.53;;;;;;;;;;5094445;28;20497;-75
2022/04/20 11:30:49;;;;;;;420.23;208.40;;;;;;;;;;5093953;28;20466;-74
2022/04/20 11:33:23;;;;;;;422.67;233.83;;;;;;;;;;5094006;28;20456;-74
2022/04/20 11:36:00;;;;;;;429.03;226.63;;;;;;;;;;5095423;28;20762;-73
2022/04/20 11:38:46;;;;;;;421.70;220.60;;;;;;;;;;5072407;28;20504;-72
2022/04/20 11:41:15;;;;;;;423.67;219.00;;;;;;;;;;5074186;28;20452;-73
2022/04/20 11:43:58;;;;;;;415.97;245.73;;;;;;;;;;5074055;28;20986;-74
2022/04/20 11:46:31;;;;;;;417.03;230.07;;;;;;;;;;5074727;28;20456;-73
2022/04/20 11:49:03;;;;;;;419.77;273.53;;;;;;;;;;5071791;28;21009;-73
2022/04/20 11:51:35;;;;;;;397.80;273.77;;;;;;;;;;5073131;28;20472;-74
2022/04/20 11:54:03;;;;;;;429.70;250.13;;;;;;;;;;5074808;28;20456;-73
2022/04/20 11:56:41;;;;;;;430.83;250.90;;;;;;;;;;5074023;28;20460;-74
2022/04/20 11:59:13;;;;;;;410.07;290.43;;;;;;;;;;5076534;28;20474;-74
2022/04/20 12:01:47;;;;;;;435.07;282.33;;;;;;;;;;5074074;28;20475;-73
2022/04/20 12:04:22;;;;;;;421.10;255.40;;;;;;;;;;5069848;28;20472;-74
2022/04/20 12:09:44;;;;;;;411.00;251.90;;;;;;;;;;5086413;28;20493;-75
2022/04/20 12:12:16;;;;;;;413.63;243.07;;;;;;;;;;5073067;28;20557;-74
2022/04/20 12:14:48;;;;;;;411.47;210.30;;;;;;;;;;5082901;28;20868;-74
2022/04/20 12:17:27;;;;;;;401.07;228.80;;;;;;;;;;5077346;28;20767;-74
2022/04/20 12:22:57;;;;;;;425.57;248.67;;;;;;;;;;5053432;28;20473;-73
2022/04/20 12:25:26;;;;;;;420.67;258.57;;;;;;;;;;5080555;28;20456;-72
2022/04/20 12:28:35;;;;;;;421.57;235.20;;;;;;;;;;5074233;28;20459;-73
2022/04/20 12:30:51;;;;;;;422.80;224.47;;;;;;;;;;5053557;28;21008;-73
2022/04/20 12:33:39;;;;;;;423.07;239.83;;;;;;;;;;5062011;28;20562;-73
2022/04/20 12:39:04;;;;;;;418.07;217.40;;;;;;;;;;5043392;28;20558;-73
2022/04/20 12:41:42;;;;;;;420.13;244.13;;;;;;;;;;5056904;28;20457;-74
2022/04/20 12:44:31;;;;;;;412.87;207.73;;;;;;;;;;5073250;28;20471;-73
2022/04/20 12:46:59;;;;;;;406.83;242.80;;;;;;;;;;5074738;28;20460;-73
2022/04/20 12:49:31;;;;;;;418.60;220.90;;;;;;;;;;5075121;28;20535;-73
2022/04/20 12:52:09;;;;;;;420.50;212.43;;;;;;;;;;5074416;28;20437;-73
2022/04/20 12:54:40;;;;;;;420.03;222.30;;;;;;;;;;5074586;28;20467;-74
2022/04/20 13:03:02;;;;;;;397.47;188.20;;;;;;;;;;5055050;28;20441;-73
2022/04/20 13:05:35;;;;;;;406.07;217.47;;;;;;;;;;5054337;28;20452;-74
2022/04/20 13:08:15;;;;;;;411.43;231.00;;;;;;;;;;5064135;28;20448;-74
2022/04/20 13:11:13;;;;;;;424.00;227.17;;;;;;;;;;5070596;28;20522;-76
2022/04/20 13:14:07;;;;;;;412.33;217.50;;;;;;;;;;5056768;28;20476;-74
2022/04/20 13:19:56;;;;;;;;;;;;;;;;;;;;;
2022/04/20 13:22:30;;;;;;;409.93;191.20;;;;;;;;;;5054471;28;20453;-75
2022/04/20 13:27:57;;;;;;;414.40;245.50;;;;;;;;;;5072278;28;20443;-74
2022/04/20 13:30:38;;;;;;;426.43;247.03;;;;;;;;;;5081315;28;20519;-73
2022/04/20 13:33:07;;;;;;;432.67;268.10;;;;;;;;;;5058130;28;20479;-73
2022/04/20 13:35:36;;;;;;;427.53;233.77;;;;;;;;;;5074668;28;20499;-73
2022/04/20 13:38:07;;;;;;;422.43;228.77;;;;;;;;;;5092591;28;20455;-73
2022/04/20 13:40:42;;;;;;;430.43;249.77;;;;;;;;;;5097229;28;20558;-74
2022/04/20 13:43:24;;;;;;;423.13;245.07;;;;;;;;;;5082597;28;20456;-73
2022/04/20 13:48:43;;;;;;;419.87;222.70;;;;;;;;;;5073853;28;20784;-74
2022/04/20 13:51:25;;;;;;;429.57;239.73;;;;;;;;;;5072729;28;20463;-75
2022/04/20 13:54:04;;;;;;;406.80;209.40;;;;;;;;;;5072205;28;20956;-76
2022/04/20 13:56:42;;;;;;;400.63;247.40;;;;;;;;;;5075005;28;20452;-74
2022/04/20 13:59:35;;;;;;;417.97;254.70;;;;;;;;;;5075767;28;20491;-73
2022/04/20 14:02:03;;;;;;;423.43;223.97;;;;;;;;;;5066997;28;20467;-73
2022/04/20 14:04:37;;;;;;;426.07;215.53;;;;;;;;;;5075339;28;20529;-75
2022/04/20 14:07:08;;;;;;;453.90;248.77;;;;;;;;;;5073141;28;20495;-74
2022/04/20 14:09:37;;;;;;;394.87;218.70;;;;;;;;;;5074250;28;20463;-74
2022/04/20 14:12:33;;;;;;;418.50;226.37;;;;;;;;;;5072163;28;20468;-74
2022/04/20 14:15:03;;;;;;;408.93;243.97;;;;;;;;;;5049705;28;20896;-74
2022/04/20 14:17:42;;;;;;;374.23;234.03;;;;;;;;;;5075927;28;20459;-74
2022/04/20 14:20:11;;;;;;;357.13;243.80;;;;;;;;;;5072446;28;20492;-75
2022/04/20 14:22:46;;;;;;;373.27;222.83;;;;;;;;;;5074243;28;20448;-76
2022/04/20 14:33:39;;;;;;;419.67;251.47;;;;;;;;;;5072419;28;20436;-75
2022/04/20 14:36:07;;;;;;;387.67;276.27;;;;;;;;;;5075269;28;20461;-73
2022/04/20 14:38:36;;;;;;;426.20;246.37;;;;;;;;;;5074737;28;20716;-73
2022/04/20 14:41:06;;;;;;;433.97;258.83;;;;;;;;;;5076035;28;20459;-73
2022/04/20 14:43:34;;;;;;;432.90;272.40;;;;;;;;;;5084810;28;20507;-73
2022/04/20 14:46:05;;;;;;;428.20;259.93;;;;;;;;;;5075504;28;20464;-73
2022/04/20 14:48:38;;;;;;;436.87;281.87;;;;;;;;;;5078064;28;20813;-74
2022/04/20 14:51:07;;;;;;;439.17;262.03;;;;;;;;;;5074163;28;20464;-73
2022/04/20 14:53:35;;;;;;;431.83;282.13;;;;;;;;;;5078634;28;20440;-73
2022/04/20 14:56:04;;;;;;;415.73;294.60;;;;;;;;;;5074654;28;20486;-72
2022/04/20 14:58:37;;;;;;;391.23;297.30;;;;;;;;;;5073828;28;20454;-73
2022/04/20 15:01:06;;;;;;;589.45;537.78;;;;;;;;;;5066764;28;20489;-73
2022/04/20 15:03:35;;;;;;;427.53;310.27;;;;;;;;;;5072839;28;20234;-74
2022/04/20 15:06:33;;;;;;;363.47;302.53;;;;;;;;;;5068827;28;20472;-74
2022/04/20 15:09:31;;;;;;;373.80;325.53;;;;;;;;;;5066063;28;20656;-74
2022/04/20 15:12:10;;;;;;;407.90;269.07;;;;;;;;;;5064193;28;20855;-73
2022/04/20 15:14:47;;;;;;;412.90;297.13;;;;;;;;;;5075962;28;20500;-73
2022/04/20 15:20:16;;;;;;;421.60;298.77;;;;;;;;;;5066437;28;20477;-73
2022/04/20 15:22:46;;;;;;;428.83;276.23;;;;;;;;;;5075464;28;20472;-73
2022/04/20 15:25:15;;;;;;;419.67;295.20;;;;;;;;;;5089872;28;20451;-74
2022/04/20 15:27:44;;;;;;;406.43;274.73;;;;;;;;;;5089390;28;20455;-73
2022/04/20 15:30:37;;;;;;;429.47;281.20;;;;;;;;;;5074323;28;20469;-73
2022/04/20 15:33:21;;;;;;;;;;;;;;;;;;;;;
2022/04/20 15:38:49;;;;;;;390.57;265.57;;;;;;;;;;5069563;28;20444;-74
2022/04/20 15:41:17;;;;;;;411.47;264.63;;;;;;;;;;5077854;28;20467;-72
2022/04/20 15:44:03;;;;;;;416.73;232.57;;;;;;;;;;5073268;28;20452;-74
2022/04/20 15:46:45;;;;;;;398.70;264.80;;;;;;;;;;5073446;28;20771;-74
2022/04/20 15:49:20;;;;;;;424.77;263.13;;;;;;;;;;5072468;28;20468;-73
2022/04/20 15:52:06;;;;;;;419.33;242.13;;;;;;;;;;5070415;28;20460;-73
2022/04/20 16:00:13;;;;;;;390.33;237.83;;;;;;;;;;5069994;28;20536;-73
2022/04/20 16:00:32;;;;;;;370.43;218.07;;;;;;;;;;5067841;28;21057;-73
2022/04/20 16:03:15;;;;;;;391.47;236.77;;;;;;;;;;5081067;28;20542;-74
2022/04/20 16:05:56;;;;;;;404.50;205.03;;;;;;;;;;5069337;28;20735;-73
2022/04/20 16:08:29;;;;;;;415.93;206.67;;;;;;;;;;5059838;28;20452;-73
2022/04/20 16:10:59;;;;;;;360.03;208.63;;;;;;;;;;5072763;28;20455;-73